createdAt,value
2023-03-26T00:03:21.364Z,92302.00
2023-03-26T00:07:21.478Z,92300.00
2023-03-26T00:11:21.603Z,92294.00
2023-03-26T00:15:21.743Z,92288.00
2023-03-26T00:19:21.854Z,92288.00
2023-03-26T00:23:21.970Z,92292.00
2023-03-26T00:27:22.074Z,92296.00
2023-03-26T00:31:22.270Z,92288.00
2023-03-26T00:35:22.333Z,92282.00
2023-03-26T00:39:22.390Z,92280.00
2023-03-26T00:43:22.517Z,92280.00
2023-03-26T00:47:22.610Z,92276.00
2023-03-26T00:51:22.703Z,92276.00
2023-03-26T00:55:22.811Z,92266.00
2023-03-26T00:59:22.906Z,92262.00
2023-03-26T01:03:27.472Z,92264.00
2023-03-26T01:07:22.930Z,92258.00
2023-03-26T01:11:22.893Z,92255.00
2023-03-26T01:15:22.868Z,92260.00
2023-03-26T01:19:22.898Z,92253.00
2023-03-26T01:23:22.809Z,92262.00
2023-03-26T01:27:22.919Z,92253.00
2023-03-26T01:31:23.023Z,92251.00
2023-03-26T01:35:23.201Z,92258.00
2023-03-26T01:39:23.220Z,92260.00
2023-03-26T01:43:23.342Z,92253.00
2023-03-26T01:47:23.496Z,92253.00
2023-03-26T01:51:23.552Z,92249.00
2023-03-26T01:55:23.520Z,92253.00
2023-03-26T01:59:23.536Z,92260.00
2023-03-26T02:03:23.711Z,92253.00
2023-03-26T02:07:23.521Z,92251.00
2023-03-26T02:11:23.516Z,92239.00
2023-03-26T02:15:23.495Z,92243.00
2023-03-26T02:19:23.640Z,92235.00
2023-03-26T02:23:23.449Z,92231.00
2023-03-26T02:27:23.427Z,92229.00
2023-03-26T02:31:23.425Z,92217.00
2023-03-26T02:35:23.569Z,92225.00
2023-03-26T02:39:23.405Z,92219.00
2023-03-26T02:43:23.494Z,92213.00
2023-03-26T02:47:23.420Z,92221.00
2023-03-26T02:51:23.540Z,92211.00
2023-03-26T02:55:23.675Z,92211.00
2023-03-26T02:59:23.762Z,92196.00
2023-03-26T03:03:23.917Z,92168.00
2023-03-26T03:07:23.977Z,92155.00
2023-03-26T03:11:24.081Z,92170.00
2023-03-26T03:15:24.192Z,92162.00
2023-03-26T03:19:24.290Z,92159.00
2023-03-26T03:23:24.403Z,92155.00
2023-03-26T03:27:24.496Z,92143.00
2023-03-26T03:31:24.694Z,92135.00
2023-03-26T03:35:24.766Z,92125.00
2023-03-26T03:39:24.815Z,92119.00
2023-03-26T03:43:24.923Z,92117.00
2023-03-26T03:47:25.066Z,92115.00
2023-03-26T03:51:25.138Z,92115.00
2023-03-26T03:55:25.235Z,92125.00
2023-03-26T03:59:25.340Z,92119.00
2023-03-26T04:03:33.004Z,92106.00
2023-03-26T04:07:26.416Z,92098.00
2023-03-26T04:11:25.407Z,92092.00
2023-03-26T04:15:25.337Z,92076.00
2023-03-26T04:19:25.293Z,92076.00
2023-03-26T04:23:25.366Z,92051.00
2023-03-26T04:27:25.499Z,92043.00
2023-03-26T04:31:25.616Z,92035.00
2023-03-26T04:35:25.762Z,92031.00
2023-03-26T04:39:25.811Z,92029.00
2023-03-26T04:43:25.929Z,92033.00
2023-03-26T04:47:26.088Z,92033.00
2023-03-26T04:51:26.149Z,92025.00
2023-03-26T04:55:26.256Z,92029.00
2023-03-26T04:59:26.376Z,92029.00
2023-03-26T05:03:26.492Z,92027.00
2023-03-26T05:07:26.619Z,92031.00
2023-03-26T05:11:26.736Z,92035.00
2023-03-26T05:15:26.829Z,92031.00
2023-03-26T05:19:26.965Z,92033.00
2023-03-26T05:23:27.081Z,92027.00
2023-03-26T05:27:27.206Z,92020.00
2023-03-26T05:31:27.304Z,92016.00
2023-03-26T05:35:27.550Z,92012.00
2023-03-26T05:39:27.571Z,92004.00
2023-03-26T05:43:27.703Z,91996.00
2023-03-26T05:47:27.874Z,91990.00
2023-03-26T05:51:27.961Z,91988.00
2023-03-26T05:55:28.080Z,91982.00
2023-03-26T05:59:28.202Z,91978.00
2023-03-26T06:03:28.366Z,91982.00
2023-03-26T06:07:28.421Z,91972.00
2023-03-26T06:11:28.542Z,91984.00
2023-03-26T06:15:28.647Z,91976.00
2023-03-26T06:19:28.757Z,91972.00
2023-03-26T06:23:28.860Z,91969.00
2023-03-26T06:27:28.951Z,91941.00
2023-03-26T06:31:29.148Z,91925.00
2023-03-26T06:35:29.172Z,91916.00
2023-03-26T06:39:29.289Z,91898.00
2023-03-26T06:43:29.400Z,91892.00
2023-03-26T06:47:29.531Z,91894.00
2023-03-26T06:51:29.575Z,91902.00
2023-03-26T06:55:29.696Z,91902.00
2023-03-26T06:59:29.772Z,91898.00
2023-03-26T07:03:29.858Z,91894.00
2023-03-26T07:07:29.945Z,91892.00
2023-03-26T07:11:30.431Z,91882.00
2023-03-26T07:15:30.164Z,91876.00
2023-03-26T07:19:30.277Z,91872.00
2023-03-26T07:23:30.397Z,91859.00
2023-03-26T07:27:30.512Z,91833.00
2023-03-26T07:31:30.638Z,91831.00
2023-03-26T07:35:30.822Z,91820.00
2023-03-26T07:39:30.844Z,91784.00
2023-03-26T07:43:30.954Z,91781.00
2023-03-26T07:47:31.090Z,91773.00
2023-03-26T07:51:31.166Z,91783.00
2023-03-26T07:55:31.260Z,91775.00
2023-03-26T07:59:31.353Z,91775.00
2023-03-26T08:03:31.602Z,91771.00
2023-03-26T08:07:31.524Z,91765.00
2023-03-26T08:11:31.588Z,91757.00
2023-03-26T08:15:31.673Z,91757.00
2023-03-26T08:19:31.722Z,91751.00
2023-03-26T08:23:31.800Z,91745.00
2023-03-26T08:27:31.861Z,91745.00
2023-03-26T08:31:31.971Z,91745.00
2023-03-26T08:35:32.041Z,91745.00
2023-03-26T08:39:32.089Z,91745.00
2023-03-26T08:43:32.158Z,91745.00
2023-03-26T08:47:32.233Z,91763.00
2023-03-26T08:51:32.298Z,91757.00
2023-03-26T08:55:32.370Z,91749.00
2023-03-26T08:59:32.450Z,91743.00
2023-03-26T09:03:32.546Z,91734.00
2023-03-26T09:07:32.612Z,91737.00
2023-03-26T09:11:32.713Z,91724.00
2023-03-26T09:15:32.809Z,91704.00
2023-03-26T09:19:32.872Z,91698.00
2023-03-26T09:23:32.953Z,91681.00
2023-03-26T09:27:33.047Z,91669.00
2023-03-26T09:31:33.174Z,91657.00
2023-03-26T09:35:33.273Z,91657.00
2023-03-26T09:39:33.278Z,91655.00
2023-03-26T09:43:33.353Z,91655.00
2023-03-26T09:47:33.501Z,91651.00
2023-03-26T09:51:33.521Z,91641.00
2023-03-26T09:55:33.619Z,91643.00
2023-03-26T09:59:33.687Z,91647.00
2023-03-26T10:03:33.827Z,91649.00
2023-03-26T10:07:33.853Z,91645.00
2023-03-26T10:11:33.935Z,91647.00
2023-03-26T10:15:34.011Z,91651.00
2023-03-26T10:19:34.083Z,91649.00
2023-03-26T10:23:34.166Z,91655.00
2023-03-26T10:27:34.242Z,91659.00
2023-03-26T10:31:34.320Z,91653.00
2023-03-26T10:35:34.416Z,91659.00
2023-03-26T10:39:38.202Z,91661.00
2023-03-26T10:43:35.422Z,91659.00
2023-03-26T10:47:34.398Z,91665.00
2023-03-26T10:51:34.300Z,91671.00
2023-03-26T10:55:34.242Z,91663.00
2023-03-26T10:59:34.221Z,91665.00
2023-03-26T11:03:34.315Z,91663.00
2023-03-26T11:07:34.411Z,91667.00
2023-03-26T11:11:34.496Z,91667.00
2023-03-26T11:15:34.569Z,91657.00
2023-03-26T11:19:34.615Z,91657.00
2023-03-26T11:23:34.687Z,91655.00
2023-03-26T11:27:34.745Z,91659.00
2023-03-26T11:31:34.854Z,91661.00
2023-03-26T11:35:40.420Z,91667.00
2023-03-26T11:39:35.796Z,91671.00
2023-03-26T11:43:34.744Z,91651.00
2023-03-26T11:47:34.757Z,91653.00
2023-03-26T11:51:34.618Z,91659.00
2023-03-26T11:55:34.603Z,91661.00
2023-03-26T11:59:41.965Z,91669.00
2023-03-26T12:03:35.607Z,91663.00
2023-03-26T12:07:34.532Z,91659.00
2023-03-26T12:11:35.401Z,91665.00
2023-03-26T12:15:34.426Z,91669.00
2023-03-26T12:19:34.353Z,91661.00
2023-03-26T12:23:34.277Z,91669.00
2023-03-26T12:27:34.287Z,91659.00
2023-03-26T12:31:34.296Z,91659.00
2023-03-26T12:35:34.305Z,91657.00
2023-03-26T12:40:08.111Z,91651.00
2023-03-26T12:44:53.234Z,91655.00
2023-03-26T12:48:00.848Z,91663.00
2023-03-26T12:51:34.989Z,91659.00
2023-03-26T12:55:33.908Z,91663.00
2023-03-26T12:59:33.816Z,91659.00
2023-03-26T13:03:33.765Z,91655.00
2023-03-26T13:07:33.636Z,91657.00
2023-03-26T13:11:33.563Z,91649.00
2023-03-26T13:15:33.497Z,91647.00
2023-03-26T13:19:33.410Z,91641.00
2023-03-26T13:23:33.324Z,91635.00
2023-03-26T13:27:33.239Z,91635.00
2023-03-26T13:31:33.183Z,91624.00
2023-03-26T13:35:33.173Z,91620.00
2023-03-26T13:39:33.054Z,91618.00
2023-03-26T13:43:32.984Z,91622.00
2023-03-26T13:47:32.927Z,91624.00
2023-03-26T13:51:32.849Z,91624.00
2023-03-26T13:55:32.809Z,91620.00
2023-03-26T13:59:32.761Z,91610.00
2023-03-26T14:03:32.770Z,91602.00
2023-03-26T14:07:32.672Z,91610.00
2023-03-26T14:11:33.084Z,91606.00
2023-03-26T14:15:32.546Z,91594.00
2023-03-26T14:19:32.464Z,91584.00
2023-03-26T14:23:32.387Z,91583.00
2023-03-26T14:27:32.327Z,91584.00
2023-03-26T14:31:32.628Z,91586.00
2023-03-26T14:35:32.199Z,91592.00
2023-03-26T14:39:32.055Z,91586.00
2023-03-26T14:43:31.995Z,91590.00
2023-03-26T14:47:32.004Z,91579.00
2023-03-26T14:51:31.904Z,91573.00
2023-03-26T14:55:32.577Z,91569.00
2023-03-26T14:59:31.807Z,91565.00
2023-03-26T15:03:31.828Z,91561.00
2023-03-26T15:07:31.725Z,91561.00
2023-03-26T15:11:31.673Z,91559.00
2023-03-26T15:15:31.636Z,91555.00
2023-03-26T15:19:31.588Z,91542.00
2023-03-26T15:23:31.539Z,91532.00
2023-03-26T15:27:31.503Z,91526.00
2023-03-26T15:31:31.458Z,91526.00
2023-03-26T15:35:31.377Z,91532.00
2023-03-26T15:39:31.321Z,91534.00
2023-03-26T15:43:31.279Z,91520.00
2023-03-26T15:47:31.263Z,91516.00
2023-03-26T15:51:31.193Z,91503.00
2023-03-26T15:55:31.176Z,91512.00
2023-03-26T15:59:31.145Z,91516.00
2023-03-26T16:03:31.044Z,91506.00
2023-03-26T16:07:31.007Z,91504.00
2023-03-26T16:11:30.956Z,91493.00
2023-03-26T16:15:30.970Z,91479.00
2023-03-26T16:19:30.857Z,91465.00
2023-03-26T16:23:30.825Z,91444.00
2023-03-26T16:27:30.787Z,91422.00
2023-03-26T16:31:38.178Z,91408.00
2023-03-26T16:35:31.900Z,91412.00
2023-03-26T16:39:30.614Z,91410.00
2023-03-26T16:43:30.529Z,91408.00
2023-03-26T16:47:30.504Z,91424.00
2023-03-26T16:51:30.417Z,91420.00
2023-03-26T16:55:30.354Z,91416.00
2023-03-26T16:59:30.287Z,91404.00
2023-03-26T17:03:30.341Z,91416.00
2023-03-26T17:07:30.166Z,91436.00
2023-03-26T17:11:30.119Z,91444.00
2023-03-26T17:15:30.064Z,91469.00
2023-03-26T17:19:29.996Z,91465.00
2023-03-26T17:23:29.936Z,91485.00
2023-03-26T17:27:29.897Z,91499.00
2023-03-26T17:31:29.839Z,91530.00
2023-03-26T17:35:29.764Z,91534.00
2023-03-26T17:39:29.732Z,91555.00
2023-03-26T17:43:29.763Z,91571.00
2023-03-26T17:47:29.745Z,91561.00
2023-03-26T17:51:29.698Z,91561.00
2023-03-26T17:55:29.674Z,91559.00
2023-03-26T17:59:29.669Z,91551.00
2023-03-26T18:03:31.026Z,91532.00
2023-03-26T18:07:29.663Z,91549.00
2023-03-26T18:11:29.663Z,91526.00
2023-03-26T18:15:29.774Z,91522.00
2023-03-26T18:19:29.619Z,91506.00
2023-03-26T18:23:29.614Z,91489.00
2023-03-26T18:27:29.604Z,91493.00
2023-03-26T18:31:29.599Z,91493.00
2023-03-26T18:35:29.612Z,91481.00
2023-03-26T18:39:29.539Z,91479.00
2023-03-26T18:43:34.840Z,91485.00
2023-03-26T18:47:30.508Z,91495.00
2023-03-26T18:51:31.699Z,91497.00
2023-03-26T18:55:29.378Z,91508.00
2023-03-26T18:59:29.369Z,91532.00
2023-03-26T19:03:29.431Z,91530.00
2023-03-26T19:07:29.318Z,91540.00
2023-03-26T19:11:29.298Z,91561.00
2023-03-26T19:15:29.282Z,91567.00
2023-03-26T19:19:29.266Z,91573.00
2023-03-26T19:23:29.252Z,91573.00
2023-03-26T19:51:29.063Z,91540.00
